sensor_id;sensor_type;location;lat;lon;timestamp;temperature;humidity
65478;SHT31;53678;39.642;22.430;2022-12-20T00:01:49;7.74;83.44
65478;SHT31;53678;39.642;22.430;2022-12-20T00:04:14;7.70;83.56
65478;SHT31;53678;39.642;22.430;2022-12-20T00:06:40;7.73;83.39
65478;SHT31;53678;39.642;22.430;2022-12-20T00:09:07;7.66;83.13
65478;SHT31;53678;39.642;22.430;2022-12-20T00:11:34;7.69;83.57
65478;SHT31;53678;39.642;22.430;2022-12-20T00:14:00;7.57;83.42
65478;SHT31;53678;39.642;22.430;2022-12-20T00:16:27;7.63;83.28
65478;SHT31;53678;39.642;22.430;2022-12-20T00:18:55;7.63;83.81
65478;SHT31;53678;39.642;22.430;2022-12-20T00:21:22;7.57;83.37
65478;SHT31;53678;39.642;22.430;2022-12-20T00:23:48;7.60;83.47
65478;SHT31;53678;39.642;22.430;2022-12-20T00:26:16;7.59;83.26
65478;SHT31;53678;39.642;22.430;2022-12-20T00:28:45;7.43;83.29
65478;SHT31;53678;39.642;22.430;2022-12-20T00:31:14;7.56;82.57
65478;SHT31;53678;39.642;22.430;2022-12-20T00:33:40;7.53;82.47
65478;SHT31;53678;39.642;22.430;2022-12-20T00:36:08;7.59;82.82
65478;SHT31;53678;39.642;22.430;2022-12-20T00:38:34;7.47;82.57
65478;SHT31;53678;39.642;22.430;2022-12-20T00:41:09;7.50;82.73
65478;SHT31;53678;39.642;22.430;2022-12-20T00:43:36;7.50;82.33
65478;SHT31;53678;39.642;22.430;2022-12-20T00:46:02;7.42;81.89
65478;SHT31;53678;39.642;22.430;2022-12-20T00:48:30;7.52;82.04
65478;SHT31;53678;39.642;22.430;2022-12-20T00:51:01;7.47;81.52
65478;SHT31;53678;39.642;22.430;2022-12-20T00:53:27;7.52;81.65
65478;SHT31;53678;39.642;22.430;2022-12-20T00:55:57;7.50;81.09
65478;SHT31;53678;39.642;22.430;2022-12-20T00:58:23;7.52;81.78
65478;SHT31;53678;39.642;22.430;2022-12-20T01:00:50;7.47;81.43
65478;SHT31;53678;39.642;22.430;2022-12-20T01:03:17;7.49;80.67
65478;SHT31;53678;39.642;22.430;2022-12-20T01:06:03;7.57;80.77
65478;SHT31;53678;39.642;22.430;2022-12-20T01:08:30;7.46;80.01
65478;SHT31;53678;39.642;22.430;2022-12-20T01:10:58;7.59;78.44
65478;SHT31;53678;39.642;22.430;2022-12-20T01:13:25;7.69;79.33
65478;SHT31;53678;39.642;22.430;2022-12-20T01:15:51;7.66;79.89
65478;SHT31;53678;39.642;22.430;2022-12-20T01:18:17;7.69;79.19
65478;SHT31;53678;39.642;22.430;2022-12-20T01:20:43;7.74;78.72
65478;SHT31;53678;39.642;22.430;2022-12-20T01:23:09;7.77;79.14
65478;SHT31;53678;39.642;22.430;2022-12-20T01:25:34;7.71;77.87
65478;SHT31;53678;39.642;22.430;2022-12-20T01:28:06;7.67;78.48
65478;SHT31;53678;39.642;22.430;2022-12-20T01:30:32;7.66;78.61
65478;SHT31;53678;39.642;22.430;2022-12-20T01:32:58;7.71;78.28
65478;SHT31;53678;39.642;22.430;2022-12-20T01:35:26;7.60;78.47
65478;SHT31;53678;39.642;22.430;2022-12-20T01:37:52;7.69;78.55
65478;SHT31;53678;39.642;22.430;2022-12-20T01:40:18;7.70;78.69
65478;SHT31;53678;39.642;22.430;2022-12-20T01:42:44;7.73;78.24
65478;SHT31;53678;39.642;22.430;2022-12-20T01:45:22;7.67;77.99
65478;SHT31;53678;39.642;22.430;2022-12-20T01:47:49;7.70;77.20
65478;SHT31;53678;39.642;22.430;2022-12-20T01:50:15;7.69;77.79
65478;SHT31;53678;39.642;22.430;2022-12-20T01:52:43;7.70;77.44
65478;SHT31;53678;39.642;22.430;2022-12-20T01:55:17;7.71;77.43
65478;SHT31;53678;39.642;22.430;2022-12-20T01:57:55;7.78;77.75
65478;SHT31;53678;39.642;22.430;2022-12-20T02:00:24;7.78;77.65
65478;SHT31;53678;39.642;22.430;2022-12-20T02:02:50;7.81;77.94
65478;SHT31;53678;39.642;22.430;2022-12-20T02:05:19;7.77;77.77
65478;SHT31;53678;39.642;22.430;2022-12-20T02:07:50;7.76;77.92
65478;SHT31;53678;39.642;22.430;2022-12-20T02:10:23;7.70;76.89
65478;SHT31;53678;39.642;22.430;2022-12-20T02:12:58;7.77;77.67
65478;SHT31;53678;39.642;22.430;2022-12-20T02:18:22;7.67;77.41
65478;SHT31;53678;39.642;22.430;2022-12-20T02:21:08;7.67;77.66
65478;SHT31;53678;39.642;22.430;2022-12-20T02:32:21;7.66;77.94
65478;SHT31;53678;39.642;22.430;2022-12-20T02:34:49;7.71;77.49
65478;SHT31;53678;39.642;22.430;2022-12-20T02:37:15;7.71;77.77
65478;SHT31;53678;39.642;22.430;2022-12-20T02:39:43;7.71;76.96
65478;SHT31;53678;39.642;22.430;2022-12-20T02:42:17;7.70;77.20
65478;SHT31;53678;39.642;22.430;2022-12-20T02:45:04;7.80;78.03
65478;SHT31;53678;39.642;22.430;2022-12-20T02:47:48;7.60;77.61
65478;SHT31;53678;39.642;22.430;2022-12-20T02:50:20;7.50;78.24
65478;SHT31;53678;39.642;22.430;2022-12-20T02:52:49;7.46;77.81
65478;SHT31;53678;39.642;22.430;2022-12-20T02:55:16;7.57;77.36
65478;SHT31;53678;39.642;22.430;2022-12-20T02:57:48;7.46;77.09
65478;SHT31;53678;39.642;22.430;2022-12-20T03:00:20;7.43;77.13
65478;SHT31;53678;39.642;22.430;2022-12-20T03:02:49;7.40;77.36
65478;SHT31;53678;39.642;22.430;2022-12-20T03:05:43;7.45;76.78
65478;SHT31;53678;39.642;22.430;2022-12-20T03:08:09;7.53;76.50
65478;SHT31;53678;39.642;22.430;2022-12-20T03:10:38;7.63;78.70
65478;SHT31;53678;39.642;22.430;2022-12-20T03:13:04;7.59;78.58
65478;SHT31;53678;39.642;22.430;2022-12-20T03:15:36;7.66;78.35
65478;SHT31;53678;39.642;22.430;2022-12-20T03:18:03;7.57;76.30
65478;SHT31;53678;39.642;22.430;2022-12-20T03:20:29;7.57;75.67
65478;SHT31;53678;39.642;22.430;2022-12-20T03:22:58;7.56;76.46
65478;SHT31;53678;39.642;22.430;2022-12-20T03:25:24;7.66;76.93
65478;SHT31;53678;39.642;22.430;2022-12-20T03:27:53;7.57;76.26
65478;SHT31;53678;39.642;22.430;2022-12-20T03:30:23;7.42;77.38
65478;SHT31;53678;39.642;22.430;2022-12-20T03:32:49;7.46;77.28
65478;SHT31;53678;39.642;22.430;2022-12-20T03:35:15;7.55;77.68
65478;SHT31;53678;39.642;22.430;2022-12-20T03:37:41;7.42;78.00
65478;SHT31;53678;39.642;22.430;2022-12-20T03:40:09;7.36;78.02
65478;SHT31;53678;39.642;22.430;2022-12-20T03:42:36;7.25;78.06
65478;SHT31;53678;39.642;22.430;2022-12-20T03:45:04;7.22;77.83
65478;SHT31;53678;39.642;22.430;2022-12-20T03:47:30;7.33;78.36
65478;SHT31;53678;39.642;22.430;2022-12-20T03:49:56;7.29;78.78
65478;SHT31;53678;39.642;22.430;2022-12-20T03:52:22;7.40;78.71
65478;SHT31;53678;39.642;22.430;2022-12-20T03:54:48;7.39;79.02
65478;SHT31;53678;39.642;22.430;2022-12-20T03:57:18;7.20;81.93
65478;SHT31;53678;39.642;22.430;2022-12-20T03:59:49;7.39;82.82
65478;SHT31;53678;39.642;22.430;2022-12-20T04:02:17;7.45;83.07
65478;SHT31;53678;39.642;22.430;2022-12-20T04:04:43;7.53;83.31
65478;SHT31;53678;39.642;22.430;2022-12-20T04:07:09;7.45;84.29
65478;SHT31;53678;39.642;22.430;2022-12-20T04:09:37;7.36;84.98
65478;SHT31;53678;39.642;22.430;2022-12-20T04:12:08;7.43;85.07
65478;SHT31;53678;39.642;22.430;2022-12-20T04:14:36;7.52;84.22
65478;SHT31;53678;39.642;22.430;2022-12-20T04:17:03;7.62;82.52
65478;SHT31;53678;39.642;22.430;2022-12-20T04:19:30;7.62;82.27
65478;SHT31;53678;39.642;22.430;2022-12-20T04:21:56;7.60;82.42
65478;SHT31;53678;39.642;22.430;2022-12-20T04:24:25;7.53;82.13
65478;SHT31;53678;39.642;22.430;2022-12-20T04:27:03;7.74;82.08
65478;SHT31;53678;39.642;22.430;2022-12-20T04:29:30;7.62;82.56
65478;SHT31;53678;39.642;22.430;2022-12-20T04:31:57;7.39;82.50
65478;SHT31;53678;39.642;22.430;2022-12-20T04:34:23;7.47;82.26
65478;SHT31;53678;39.642;22.430;2022-12-20T04:36:52;7.50;81.53
65478;SHT31;53678;39.642;22.430;2022-12-20T04:39:28;7.49;81.98
65478;SHT31;53678;39.642;22.430;2022-12-20T04:42:30;7.43;82.13
65478;SHT31;53678;39.642;22.430;2022-12-20T04:44:56;7.53;82.18
65478;SHT31;53678;39.642;22.430;2022-12-20T04:47:26;7.49;81.72
65478;SHT31;53678;39.642;22.430;2022-12-20T04:49:54;7.42;81.74
65478;SHT31;53678;39.642;22.430;2022-12-20T04:52:22;7.36;81.27
65478;SHT31;53678;39.642;22.430;2022-12-20T04:55:06;7.47;80.97
65478;SHT31;53678;39.642;22.430;2022-12-20T04:57:33;7.42;80.53
65478;SHT31;53678;39.642;22.430;2022-12-20T05:00:03;7.53;80.29
65478;SHT31;53678;39.642;22.430;2022-12-20T05:02:29;7.46;77.99
65478;SHT31;53678;39.642;22.430;2022-12-20T05:05:02;7.45;77.00
65478;SHT31;53678;39.642;22.430;2022-12-20T05:07:33;7.40;76.35
65478;SHT31;53678;39.642;22.430;2022-12-20T05:09:59;7.40;76.42
65478;SHT31;53678;39.642;22.430;2022-12-20T05:12:25;7.38;76.82
65478;SHT31;53678;39.642;22.430;2022-12-20T05:14:55;7.52;76.70
65478;SHT31;53678;39.642;22.430;2022-12-20T05:17:21;7.50;76.48
65478;SHT31;53678;39.642;22.430;2022-12-20T05:19:47;7.53;76.56
65478;SHT31;53678;39.642;22.430;2022-12-20T05:22:14;7.43;77.02
65478;SHT31;53678;39.642;22.430;2022-12-20T05:25:07;7.30;77.03
65478;SHT31;53678;39.642;22.430;2022-12-20T05:27:54;7.28;76.97
65478;SHT31;53678;39.642;22.430;2022-12-20T05:30:24;7.23;77.63
65478;SHT31;53678;39.642;22.430;2022-12-20T05:32:50;7.30;77.45
65478;SHT31;53678;39.642;22.430;2022-12-20T05:35:16;7.16;77.44
65478;SHT31;53678;39.642;22.430;2022-12-20T05:37:48;7.08;77.44
65478;SHT31;53678;39.642;22.430;2022-12-20T05:40:17;7.23;77.37
65478;SHT31;53678;39.642;22.430;2022-12-20T05:42:43;7.18;77.21
65478;SHT31;53678;39.642;22.430;2022-12-20T05:45:10;7.09;77.69
65478;SHT31;53678;39.642;22.430;2022-12-20T05:47:45;7.04;78.13
65478;SHT31;53678;39.642;22.430;2022-12-20T05:50:14;6.98;78.34
65478;SHT31;53678;39.642;22.430;2022-12-20T05:53:02;7.09;78.46
65478;SHT31;53678;39.642;22.430;2022-12-20T05:55:28;6.94;78.16
65478;SHT31;53678;39.642;22.430;2022-12-20T05:57:55;6.92;78.68
65478;SHT31;53678;39.642;22.430;2022-12-20T06:00:33;6.84;77.67
65478;SHT31;53678;39.642;22.430;2022-12-20T06:03:00;6.76;78.21
65478;SHT31;53678;39.642;22.430;2022-12-20T06:05:26;6.89;77.76
65478;SHT31;53678;39.642;22.430;2022-12-20T06:07:53;6.95;77.64
65478;SHT31;53678;39.642;22.430;2022-12-20T06:10:19;7.05;77.22
65478;SHT31;53678;39.642;22.430;2022-12-20T06:12:54;6.89;78.17
65478;SHT31;53678;39.642;22.430;2022-12-20T06:15:23;6.78;78.95
65478;SHT31;53678;39.642;22.430;2022-12-20T06:17:48;6.85;79.05
65478;SHT31;53678;39.642;22.430;2022-12-20T06:20:15;6.95;77.93
65478;SHT31;53678;39.642;22.430;2022-12-20T06:22:44;6.89;78.56
65478;SHT31;53678;39.642;22.430;2022-12-20T06:25:12;7.05;78.51
65478;SHT31;53678;39.642;22.430;2022-12-20T06:27:40;7.01;77.83
65478;SHT31;53678;39.642;22.430;2022-12-20T06:30:13;7.11;77.38
65478;SHT31;53678;39.642;22.430;2022-12-20T06:32:51;7.02;77.44
65478;SHT31;53678;39.642;22.430;2022-12-20T06:35:17;7.12;76.89
65478;SHT31;53678;39.642;22.430;2022-12-20T06:37:43;7.08;77.00
65478;SHT31;53678;39.642;22.430;2022-12-20T06:40:11;7.20;76.57
65478;SHT31;53678;39.642;22.430;2022-12-20T06:42:41;7.29;76.40
65478;SHT31;53678;39.642;22.430;2022-12-20T06:45:07;7.18;76.39
65478;SHT31;53678;39.642;22.430;2022-12-20T06:47:35;7.38;76.09
65478;SHT31;53678;39.642;22.430;2022-12-20T06:50:03;7.26;75.89
65478;SHT31;53678;39.642;22.430;2022-12-20T06:52:29;7.28;76.16
65478;SHT31;53678;39.642;22.430;2022-12-20T06:54:55;7.36;75.96
65478;SHT31;53678;39.642;22.430;2022-12-20T06:57:22;7.36;76.86
65478;SHT31;53678;39.642;22.430;2022-12-20T06:59:48;7.25;77.02
65478;SHT31;53678;39.642;22.430;2022-12-20T07:02:15;7.38;77.08
65478;SHT31;53678;39.642;22.430;2022-12-20T07:04:40;7.56;76.76
65478;SHT31;53678;39.642;22.430;2022-12-20T07:07:07;7.63;75.85
65478;SHT31;53678;39.642;22.430;2022-12-20T07:09:35;7.62;75.92
65478;SHT31;53678;39.642;22.430;2022-12-20T07:12:02;7.22;77.60
65478;SHT31;53678;39.642;22.430;2022-12-20T07:14:28;7.56;77.31
65478;SHT31;53678;39.642;22.430;2022-12-20T07:16:54;7.74;76.10
65478;SHT31;53678;39.642;22.430;2022-12-20T07:19:20;8.08;79.84
65478;SHT31;53678;39.642;22.430;2022-12-20T07:21:46;8.07;74.32
65478;SHT31;53678;39.642;22.430;2022-12-20T07:24:12;8.26;78.24
65478;SHT31;53678;39.642;22.430;2022-12-20T07:26:42;8.81;73.62
65478;SHT31;53678;39.642;22.430;2022-12-20T07:29:08;8.48;72.43
65478;SHT31;53678;39.642;22.430;2022-12-20T07:31:34;8.15;72.29
65478;SHT31;53678;39.642;22.430;2022-12-20T07:34:01;7.78;73.66
65478;SHT31;53678;39.642;22.430;2022-12-20T07:36:27;7.36;74.02
65478;SHT31;53678;39.642;22.430;2022-12-20T07:38:53;7.74;73.83
65478;SHT31;53678;39.642;22.430;2022-12-20T07:41:18;7.49;74.04
65478;SHT31;53678;39.642;22.430;2022-12-20T07:43:45;7.71;74.39
65478;SHT31;53678;39.642;22.430;2022-12-20T07:46:13;8.11;73.43
65478;SHT31;53678;39.642;22.430;2022-12-20T07:48:39;7.99;71.93
65478;SHT31;53678;39.642;22.430;2022-12-20T07:51:21;8.15;71.80
65478;SHT31;53678;39.642;22.430;2022-12-20T07:53:56;7.99;71.66
65478;SHT31;53678;39.642;22.430;2022-12-20T07:56:26;8.01;71.61
65478;SHT31;53678;39.642;22.430;2022-12-20T07:58:55;8.08;71.54
65478;SHT31;53678;39.642;22.430;2022-12-20T08:01:25;8.12;71.52
65478;SHT31;53678;39.642;22.430;2022-12-20T08:04:01;7.98;70.15
65478;SHT31;53678;39.642;22.430;2022-12-20T08:06:33;7.94;70.47
65478;SHT31;53678;39.642;22.430;2022-12-20T08:09:01;8.02;70.10
65478;SHT31;53678;39.642;22.430;2022-12-20T08:11:28;7.88;70.33
65478;SHT31;53678;39.642;22.430;2022-12-20T08:13:54;7.98;69.68
65478;SHT31;53678;39.642;22.430;2022-12-20T08:16:20;7.86;69.41
65478;SHT31;53678;39.642;22.430;2022-12-20T08:18:46;7.90;68.56
65478;SHT31;53678;39.642;22.430;2022-12-20T08:21:12;7.90;68.36
65478;SHT31;53678;39.642;22.430;2022-12-20T08:23:39;7.76;67.94
65478;SHT31;53678;39.642;22.430;2022-12-20T08:26:06;7.80;67.63
65478;SHT31;53678;39.642;22.430;2022-12-20T08:28:31;7.81;67.80
65478;SHT31;53678;39.642;22.430;2022-12-20T08:31:03;7.91;67.60
65478;SHT31;53678;39.642;22.430;2022-12-20T08:33:30;7.90;67.18
65478;SHT31;53678;39.642;22.430;2022-12-20T08:35:58;7.94;66.15
65478;SHT31;53678;39.642;22.430;2022-12-20T08:38:28;7.98;65.56
65478;SHT31;53678;39.642;22.430;2022-12-20T08:41:05;7.95;64.60
65478;SHT31;53678;39.642;22.430;2022-12-20T08:43:32;7.90;65.68
65478;SHT31;53678;39.642;22.430;2022-12-20T08:45:58;8.09;65.82
65478;SHT31;53678;39.642;22.430;2022-12-20T08:48:25;8.25;66.00
65478;SHT31;53678;39.642;22.430;2022-12-20T08:51:01;8.09;65.61
65478;SHT31;53678;39.642;22.430;2022-12-20T08:53:27;7.98;65.79
65478;SHT31;53678;39.642;22.430;2022-12-20T08:56:05;7.94;65.92
65478;SHT31;53678;39.642;22.430;2022-12-20T08:58:31;8.22;66.54
65478;SHT31;53678;39.642;22.430;2022-12-20T09:00:58;8.39;64.59
65478;SHT31;53678;39.642;22.430;2022-12-20T09:03:33;8.21;64.69
65478;SHT31;53678;39.642;22.430;2022-12-20T09:06:00;8.57;64.67
65478;SHT31;53678;39.642;22.430;2022-12-20T09:08:26;8.97;64.84
65478;SHT31;53678;39.642;22.430;2022-12-20T09:10:52;8.66;63.96
65478;SHT31;53678;39.642;22.430;2022-12-20T09:13:18;8.63;64.87
65478;SHT31;53678;39.642;22.430;2022-12-20T09:15:44;8.55;66.42
65478;SHT31;53678;39.642;22.430;2022-12-20T09:18:10;8.42;67.43
65478;SHT31;53678;39.642;22.430;2022-12-20T09:20:42;8.36;67.53
65478;SHT31;53678;39.642;22.430;2022-12-20T09:23:09;8.36;68.47
65478;SHT31;53678;39.642;22.430;2022-12-20T09:25:34;8.21;69.51
65478;SHT31;53678;39.642;22.430;2022-12-20T09:28:03;8.02;69.33
65478;SHT31;53678;39.642;22.430;2022-12-20T09:30:28;8.17;69.88
65478;SHT31;53678;39.642;22.430;2022-12-20T09:32:54;8.45;68.62
65478;SHT31;53678;39.642;22.430;2022-12-20T09:35:21;8.76;67.72
65478;SHT31;53678;39.642;22.430;2022-12-20T09:37:49;8.87;67.66
65478;SHT31;53678;39.642;22.430;2022-12-20T09:40:19;8.75;66.07
65478;SHT31;53678;39.642;22.430;2022-12-20T09:42:47;8.72;67.68
65478;SHT31;53678;39.642;22.430;2022-12-20T09:45:24;8.83;67.89
65478;SHT31;53678;39.642;22.430;2022-12-20T09:47:50;9.05;66.69
65478;SHT31;53678;39.642;22.430;2022-12-20T09:50:18;9.17;65.65
65478;SHT31;53678;39.642;22.430;2022-12-20T09:55:39;9.46;65.93
65478;SHT31;53678;39.642;22.430;2022-12-20T10:01:11;8.81;65.27
65478;SHT31;53678;39.642;22.430;2022-12-20T10:03:39;8.65;66.34
65478;SHT31;53678;39.642;22.430;2022-12-20T10:09:25;9.11;64.36
65478;SHT31;53678;39.642;22.430;2022-12-20T10:20:29;8.65;66.54
65478;SHT31;53678;39.642;22.430;2022-12-20T10:23:10;8.50;66.31
65478;SHT31;53678;39.642;22.430;2022-12-20T10:25:39;8.94;66.00
65478;SHT31;53678;39.642;22.430;2022-12-20T10:28:14;9.13;65.58
65478;SHT31;53678;39.642;22.430;2022-12-20T10:30:41;9.25;66.07
65478;SHT31;53678;39.642;22.430;2022-12-20T10:33:22;9.31;65.48
65478;SHT31;53678;39.642;22.430;2022-12-20T10:35:49;9.61;63.19
65478;SHT31;53678;39.642;22.430;2022-12-20T10:38:16;9.83;62.18
65478;SHT31;53678;39.642;22.430;2022-12-20T10:41:02;10.07;62.94
65478;SHT31;53678;39.642;22.430;2022-12-20T10:43:44;10.18;62.82
65478;SHT31;53678;39.642;22.430;2022-12-20T10:46:12;8.93;64.94
65478;SHT31;53678;39.642;22.430;2022-12-20T10:48:40;8.69;65.97
65478;SHT31;53678;39.642;22.430;2022-12-20T10:53:37;8.63;65.69
65478;SHT31;53678;39.642;22.430;2022-12-20T10:58:59;8.48;66.13
65478;SHT31;53678;39.642;22.430;2022-12-20T11:01:28;8.91;67.26
65478;SHT31;53678;39.642;22.430;2022-12-20T11:04:04;9.14;64.44
65478;SHT31;53678;39.642;22.430;2022-12-20T11:14:32;9.32;64.49
65478;SHT31;53678;39.642;22.430;2022-12-20T11:17:02;9.52;64.55
65478;SHT31;53678;39.642;22.430;2022-12-20T11:22:25;9.61;65.04
65478;SHT31;53678;39.642;22.430;2022-12-20T11:25:24;9.65;64.74
65478;SHT31;53678;39.642;22.430;2022-12-20T11:44:52;9.44;64.50
65478;SHT31;53678;39.642;22.430;2022-12-20T11:52:34;9.62;64.56
65478;SHT31;53678;39.642;22.430;2022-12-20T12:00:40;9.97;63.13
65478;SHT31;53678;39.642;22.430;2022-12-20T12:03:17;9.69;64.83
65478;SHT31;53678;39.642;22.430;2022-12-20T12:05:53;9.05;66.45
65478;SHT31;53678;39.642;22.430;2022-12-20T12:08:37;9.01;66.16
65478;SHT31;53678;39.642;22.430;2022-12-20T12:11:21;9.17;64.98
65478;SHT31;53678;39.642;22.430;2022-12-20T12:13:48;9.25;65.73
65478;SHT31;53678;39.642;22.430;2022-12-20T12:16:18;9.42;65.48
65478;SHT31;53678;39.642;22.430;2022-12-20T12:18:45;9.65;64.98
65478;SHT31;53678;39.642;22.430;2022-12-20T12:21:25;9.82;64.23
65478;SHT31;53678;39.642;22.430;2022-12-20T12:26:47;9.55;64.56
65478;SHT31;53678;39.642;22.430;2022-12-20T12:29:17;9.81;64.61
65478;SHT31;53678;39.642;22.430;2022-12-20T12:46:01;10.00;65.19
65478;SHT31;53678;39.642;22.430;2022-12-20T12:51:01;10.24;64.99
65478;SHT31;53678;39.642;22.430;2022-12-20T13:11:45;10.14;64.60
65478;SHT31;53678;39.642;22.430;2022-12-20T13:16:44;10.54;62.59
65478;SHT31;53678;39.642;22.430;2022-12-20T13:19:12;10.29;62.31
65478;SHT31;53678;39.642;22.430;2022-12-20T13:21:40;10.16;62.34
65478;SHT31;53678;39.642;22.430;2022-12-20T13:26:54;10.13;63.03
65478;SHT31;53678;39.642;22.430;2022-12-20T13:29:25;9.87;63.90
65478;SHT31;53678;39.642;22.430;2022-12-20T13:31:52;10.04;63.95
65478;SHT31;53678;39.642;22.430;2022-12-20T13:34:57;10.25;62.57
65478;SHT31;53678;39.642;22.430;2022-12-20T13:37:27;10.24;62.61
65478;SHT31;53678;39.642;22.430;2022-12-20T13:39:54;10.21;62.82
65478;SHT31;53678;39.642;22.430;2022-12-20T13:42:29;10.14;63.01
65478;SHT31;53678;39.642;22.430;2022-12-20T13:45:01;10.11;63.06
65478;SHT31;53678;39.642;22.430;2022-12-20T13:47:36;10.11;62.33
65478;SHT31;53678;39.642;22.430;2022-12-20T13:52:52;9.86;62.81
65478;SHT31;53678;39.642;22.430;2022-12-20T13:55:33;9.89;63.32
65478;SHT31;53678;39.642;22.430;2022-12-20T13:58:40;9.89;63.20
65478;SHT31;53678;39.642;22.430;2022-12-20T14:01:10;9.71;63.85
65478;SHT31;53678;39.642;22.430;2022-12-20T14:03:43;9.59;64.62
65478;SHT31;53678;39.642;22.430;2022-12-20T14:06:12;9.71;65.03
65478;SHT31;53678;39.642;22.430;2022-12-20T14:08:47;9.69;64.84
65478;SHT31;53678;39.642;22.430;2022-12-20T14:11:16;9.68;64.50
65478;SHT31;53678;39.642;22.430;2022-12-20T14:13:57;9.72;64.34
65478;SHT31;53678;39.642;22.430;2022-12-20T14:16:26;9.79;65.73
65478;SHT31;53678;39.642;22.430;2022-12-20T14:19:05;9.87;63.68
65478;SHT31;53678;39.642;22.430;2022-12-20T14:21:38;9.81;63.24
65478;SHT31;53678;39.642;22.430;2022-12-20T14:24:05;9.78;63.46
65478;SHT31;53678;39.642;22.430;2022-12-20T14:26:45;9.66;63.52
65478;SHT31;53678;39.642;22.430;2022-12-20T14:29:18;9.76;63.30
65478;SHT31;53678;39.642;22.430;2022-12-20T14:31:48;9.61;63.49
65478;SHT31;53678;39.642;22.430;2022-12-20T14:34:18;9.69;63.68
65478;SHT31;53678;39.642;22.430;2022-12-20T14:36:47;9.48;62.83
65478;SHT31;53678;39.642;22.430;2022-12-20T14:41:56;9.48;63.63
65478;SHT31;53678;39.642;22.430;2022-12-20T14:44:23;9.49;63.81
65478;SHT31;53678;39.642;22.430;2022-12-20T14:49:40;9.28;63.88
65478;SHT31;53678;39.642;22.430;2022-12-20T14:52:19;9.27;63.57
65478;SHT31;53678;39.642;22.430;2022-12-20T14:54:57;9.11;64.60
65478;SHT31;53678;39.642;22.430;2022-12-20T14:57:28;8.97;64.39
65478;SHT31;53678;39.642;22.430;2022-12-20T15:02:45;8.83;65.38
65478;SHT31;53678;39.642;22.430;2022-12-20T15:05:46;8.83;65.63
65478;SHT31;53678;39.642;22.430;2022-12-20T15:08:32;8.69;65.34
65478;SHT31;53678;39.642;22.430;2022-12-20T15:13:41;8.69;67.02
65478;SHT31;53678;39.642;22.430;2022-12-20T15:16:25;8.77;66.96
65478;SHT31;53678;39.642;22.430;2022-12-20T15:18:57;8.56;65.72
65478;SHT31;53678;39.642;22.430;2022-12-20T15:21:38;8.86;67.02
65478;SHT31;53678;39.642;22.430;2022-12-20T15:24:15;8.91;69.12
65478;SHT31;53678;39.642;22.430;2022-12-20T15:26:43;9.00;65.94
65478;SHT31;53678;39.642;22.430;2022-12-20T15:29:35;9.13;65.98
65478;SHT31;53678;39.642;22.430;2022-12-20T15:32:24;8.84;65.07
65478;SHT31;53678;39.642;22.430;2022-12-20T15:34:54;8.70;66.68
65478;SHT31;53678;39.642;22.430;2022-12-20T15:37:20;8.52;67.83
65478;SHT31;53678;39.642;22.430;2022-12-20T15:39:45;8.39;67.16
65478;SHT31;53678;39.642;22.430;2022-12-20T15:42:15;8.29;66.04
65478;SHT31;53678;39.642;22.430;2022-12-20T15:44:41;8.32;65.60
65478;SHT31;53678;39.642;22.430;2022-12-20T15:47:14;8.29;66.09
65478;SHT31;53678;39.642;22.430;2022-12-20T15:49:40;8.50;64.55
65478;SHT31;53678;39.642;22.430;2022-12-20T15:52:17;8.44;63.45
65478;SHT31;53678;39.642;22.430;2022-12-20T15:54:43;8.38;65.68
65478;SHT31;53678;39.642;22.430;2022-12-20T15:57:12;8.41;65.53
65478;SHT31;53678;39.642;22.430;2022-12-20T15:59:38;8.21;64.21
65478;SHT31;53678;39.642;22.430;2022-12-20T16:02:30;8.20;65.89
65478;SHT31;53678;39.642;22.430;2022-12-20T16:04:57;8.18;65.70
65478;SHT31;53678;39.642;22.430;2022-12-20T16:07:23;8.11;65.19
65478;SHT31;53678;39.642;22.430;2022-12-20T16:09:49;8.31;64.04
65478;SHT31;53678;39.642;22.430;2022-12-20T16:12:18;8.38;64.50
65478;SHT31;53678;39.642;22.430;2022-12-20T16:14:46;8.28;66.36
65478;SHT31;53678;39.642;22.430;2022-12-20T16:17:12;8.28;66.07
65478;SHT31;53678;39.642;22.430;2022-12-20T16:19:39;8.11;65.00
65478;SHT31;53678;39.642;22.430;2022-12-20T16:22:05;8.02;64.36
65478;SHT31;53678;39.642;22.430;2022-12-20T16:24:31;8.17;65.39
65478;SHT31;53678;39.642;22.430;2022-12-20T16:26:57;8.12;65.86
65478;SHT31;53678;39.642;22.430;2022-12-20T16:29:22;8.11;66.19
65478;SHT31;53678;39.642;22.430;2022-12-20T16:31:48;8.01;66.13
65478;SHT31;53678;39.642;22.430;2022-12-20T16:34:16;7.93;66.40
65478;SHT31;53678;39.642;22.430;2022-12-20T16:36:43;7.91;66.47
65478;SHT31;53678;39.642;22.430;2022-12-20T16:39:09;7.90;67.23
65478;SHT31;53678;39.642;22.430;2022-12-20T16:41:38;7.87;66.56
65478;SHT31;53678;39.642;22.430;2022-12-20T16:44:04;7.90;67.60
65478;SHT31;53678;39.642;22.430;2022-12-20T16:46:30;7.93;67.52
65478;SHT31;53678;39.642;22.430;2022-12-20T16:48:58;8.01;66.31
65478;SHT31;53678;39.642;22.430;2022-12-20T16:51:38;8.01;66.02
65478;SHT31;53678;39.642;22.430;2022-12-20T16:54:07;7.97;66.69
65478;SHT31;53678;39.642;22.430;2022-12-20T16:56:36;7.98;66.63
65478;SHT31;53678;39.642;22.430;2022-12-20T16:59:02;7.90;66.68
65478;SHT31;53678;39.642;22.430;2022-12-20T17:01:31;7.86;67.25
65478;SHT31;53678;39.642;22.430;2022-12-20T17:03:58;7.80;67.06
65478;SHT31;53678;39.642;22.430;2022-12-20T17:06:24;7.86;67.63
65478;SHT31;53678;39.642;22.430;2022-12-20T17:08:49;7.74;67.36
65478;SHT31;53678;39.642;22.430;2022-12-20T17:11:28;7.86;67.40
65478;SHT31;53678;39.642;22.430;2022-12-20T17:13:55;7.91;67.31
65478;SHT31;53678;39.642;22.430;2022-12-20T17:16:21;7.90;67.49
65478;SHT31;53678;39.642;22.430;2022-12-20T17:18:49;7.83;68.43
65478;SHT31;53678;39.642;22.430;2022-12-20T17:21:35;7.70;70.24
65478;SHT31;53678;39.642;22.430;2022-12-20T17:24:02;7.74;70.41
65478;SHT31;53678;39.642;22.430;2022-12-20T17:26:31;7.78;69.99
65478;SHT31;53678;39.642;22.430;2022-12-20T17:28:58;7.83;69.91
65478;SHT31;53678;39.642;22.430;2022-12-20T17:31:29;7.73;70.43
65478;SHT31;53678;39.642;22.430;2022-12-20T17:34:01;7.70;70.46
65478;SHT31;53678;39.642;22.430;2022-12-20T17:36:28;7.73;70.37
65478;SHT31;53678;39.642;22.430;2022-12-20T17:38:53;7.63;70.51
65478;SHT31;53678;39.642;22.430;2022-12-20T17:43:48;7.63;70.71
65478;SHT31;53678;39.642;22.430;2022-12-20T17:46:15;7.67;71.21
65478;SHT31;53678;39.642;22.430;2022-12-20T17:48:40;7.63;71.29
65478;SHT31;53678;39.642;22.430;2022-12-20T17:51:21;7.57;71.94
65478;SHT31;53678;39.642;22.430;2022-12-20T17:53:49;7.52;72.51
65478;SHT31;53678;39.642;22.430;2022-12-20T17:56:21;7.45;73.25
65478;SHT31;53678;39.642;22.430;2022-12-20T17:58:47;7.49;72.56
65478;SHT31;53678;39.642;22.430;2022-12-20T18:03:49;7.42;72.81